createdAt,value
2019-05-22T00:00:38.487Z,15.27
2019-05-22T00:01:30.784Z,15.28
2019-05-22T00:01:56.915Z,15.25
2019-05-22T00:02:49.219Z,15.33
2019-05-22T00:03:41.598Z,15.37
2019-05-22T00:04:07.759Z,15.35
2019-05-22T00:05:00.142Z,15.31
2019-05-22T00:06:18.589Z,15.27
2019-05-22T00:07:10.953Z,15.31
2019-05-22T00:07:37.091Z,15.35
2019-05-22T00:08:29.385Z,15.29
2019-05-22T00:09:47.840Z,15.37
2019-05-22T00:10:40.191Z,15.37
2019-05-22T00:11:58.673Z,15.33
2019-05-22T00:13:19.102Z,15.39
2019-05-22T00:14:11.396Z,15.37
2019-05-22T00:14:37.567Z,15.35
2019-05-22T00:15:30.366Z,15.39
2019-05-22T00:15:56.833Z,15.29
2019-05-22T00:16:49.224Z,15.29
2019-05-22T00:17:41.548Z,15.27
2019-05-22T00:18:07.718Z,15.27
2019-05-22T00:19:00.064Z,15.36
2019-05-22T00:20:18.542Z,15.31
2019-05-22T00:21:10.842Z,15.31
2019-05-22T00:21:37.008Z,15.36
2019-05-22T00:22:29.302Z,15.29
2019-05-22T00:23:47.804Z,15.31
2019-05-22T00:24:40.123Z,15.27
2019-05-22T00:25:58.551Z,15.27
2019-05-22T00:26:50.845Z,15.31
2019-05-22T00:27:17.003Z,15.28
2019-05-22T00:28:09.351Z,15.29
2019-05-22T00:29:27.822Z,15.31
2019-05-22T00:30:20.175Z,15.31
2019-05-22T00:31:38.644Z,15.29
2019-05-22T00:32:30.937Z,15.33
2019-05-22T00:32:57.103Z,15.28
2019-05-22T00:33:49.389Z,15.22
2019-05-22T00:35:07.850Z,15.28
2019-05-22T00:36:00.173Z,15.33
2019-05-22T00:37:18.667Z,15.29
2019-05-22T00:38:10.977Z,15.27
2019-05-22T00:38:37.116Z,15.33
2019-05-22T00:39:29.413Z,15.27
2019-05-22T00:40:47.871Z,15.4
2019-05-22T00:41:40.205Z,15.28
2019-05-22T00:43:03.965Z,15.31
2019-05-22T00:43:26.810Z,15.31
2019-05-22T00:44:19.097Z,15.37
2019-05-22T00:45:11.387Z,15.28
2019-05-22T00:45:37.519Z,15.29
2019-05-22T00:46:29.829Z,15.28
2019-05-22T00:47:48.392Z,15.35
2019-05-22T00:48:41.064Z,15.28
2019-05-22T00:49:07.262Z,15.31
2019-05-22T00:49:59.680Z,15.24
2019-05-22T00:51:18.202Z,15.29
2019-05-22T00:52:10.504Z,15.25
2019-05-22T00:52:36.632Z,15.18
2019-05-22T00:53:29.206Z,15.09
2019-05-22T00:54:21.535Z,15.18
2019-05-22T00:54:47.703Z,15.11
2019-05-22T00:55:40.009Z,15.09
2019-05-22T00:56:59.899Z,15.15
2019-05-22T00:57:26.042Z,15.11
2019-05-22T00:58:18.385Z,15.14
2019-05-22T00:59:36.845Z,15.17
2019-05-22T01:00:29.167Z,15.22
2019-05-22T01:00:55.365Z,15.22
2019-05-22T01:01:47.673Z,15.25
2019-05-22T01:03:06.160Z,15.29
2019-05-22T01:03:58.452Z,15.27
2019-05-22T01:05:16.945Z,15.35
2019-05-22T01:06:09.250Z,15.27
2019-05-22T01:06:35.408Z,15.29
2019-05-22T01:07:27.705Z,15.31
2019-05-22T01:08:46.167Z,15.09
2019-05-22T01:09:38.450Z,15.07
2019-05-22T01:10:56.878Z,15.04
2019-05-22T01:11:49.165Z,15.14
2019-05-22T01:12:15.310Z,15.09
2019-05-22T01:13:07.672Z,15.15
2019-05-22T01:14:40.385Z,15.15
2019-05-22T01:15:19.483Z,15.17
2019-05-22T01:15:45.622Z,15.1
2019-05-22T01:16:37.945Z,15.07
2019-05-22T01:17:56.430Z,15.11
2019-05-22T01:18:48.754Z,15.07
2019-05-22T01:19:14.885Z,15.11
2019-05-22T01:20:07.227Z,15.07
2019-05-22T01:20:59.548Z,14.96
2019-05-22T01:21:25.780Z,15
2019-05-22T01:22:18.074Z,15.03
2019-05-22T01:23:36.545Z,15.06
2019-05-22T01:24:28.837Z,15.1
2019-05-22T01:24:54.978Z,14.96
2019-05-22T01:25:47.295Z,14.97
2019-05-22T01:26:39.624Z,14.99
2019-05-22T01:27:05.760Z,15.03
2019-05-22T01:27:58.084Z,15
2019-05-22T01:29:16.538Z,14.97
2019-05-22T01:30:08.835Z,14.97
2019-05-22T01:30:34.973Z,14.96
2019-05-22T01:31:27.346Z,15
2019-05-22T01:32:19.658Z,14.99
2019-05-22T01:32:45.789Z,14.99
2019-05-22T01:33:38.099Z,15.06
2019-05-22T01:34:56.608Z,15.02
2019-05-22T01:35:48.932Z,15
2019-05-22T01:36:15.075Z,15
2019-05-22T01:37:07.426Z,14.92
2019-05-22T01:37:59.720Z,14.79
2019-05-22T01:38:25.875Z,14.81
2019-05-22T01:39:18.169Z,14.82
2019-05-22T01:40:36.614Z,14.91
2019-05-22T01:41:28.907Z,15
2019-05-22T01:41:55.048Z,15.02
2019-05-22T01:42:47.339Z,14.99
2019-05-22T01:43:39.638Z,15.04
2019-05-22T01:44:05.838Z,15.03
2019-05-22T01:45:05.478Z,14.94
2019-05-22T01:46:16.760Z,15.04
2019-05-22T01:47:09.079Z,14.97
2019-05-22T01:47:35.218Z,14.92
2019-05-22T01:48:27.504Z,14.88
2019-05-22T01:49:19.794Z,14.88
2019-05-22T01:49:45.932Z,14.82
2019-05-22T01:50:38.221Z,14.96
2019-05-22T01:51:56.676Z,14.97
2019-05-22T01:52:48.991Z,14.94
2019-05-22T01:53:15.133Z,14.92
2019-05-22T01:54:07.429Z,14.81
2019-05-22T01:54:59.716Z,14.81
2019-05-22T01:55:25.861Z,14.92
2019-05-22T01:56:18.628Z,14.94
2019-05-22T01:56:44.807Z,14.91
2019-05-22T01:57:37.121Z,14.92
2019-05-22T01:58:29.438Z,14.94
2019-05-22T01:58:55.576Z,14.97
2019-05-22T01:59:47.868Z,14.97
2019-05-22T02:01:06.370Z,15.04
2019-05-22T02:01:58.711Z,15.02
2019-05-22T02:02:24.847Z,15
2019-05-22T02:03:17.135Z,15.04
2019-05-22T02:04:09.460Z,15.03
2019-05-22T02:04:35.588Z,15.06
2019-05-22T02:05:27.885Z,15
2019-05-22T02:06:46.309Z,14.96
2019-05-22T02:07:38.645Z,15.02
2019-05-22T02:08:04.786Z,14.97
2019-05-22T02:08:57.094Z,14.99
2019-05-22T02:09:49.379Z,15.02
2019-05-22T02:10:15.566Z,15.03
2019-05-22T02:11:07.877Z,15
2019-05-22T02:12:26.416Z,15.07
2019-05-22T02:13:18.724Z,15.15
2019-05-22T02:13:44.892Z,15.18
2019-05-22T02:14:37.180Z,15.1
2019-05-22T02:15:29.513Z,15.03
2019-05-22T02:15:55.657Z,15
2019-05-22T02:16:56.445Z,15.03
2019-05-22T02:17:15.136Z,15
2019-05-22T02:18:07.425Z,14.97
2019-05-22T02:18:59.718Z,14.97
2019-05-22T02:19:25.846Z,14.97
2019-05-22T02:20:18.219Z,14.97
2019-05-22T02:21:36.654Z,14.99
2019-05-22T02:22:28.976Z,14.97
2019-05-22T02:22:55.110Z,14.97
2019-05-22T02:23:47.438Z,15.03
2019-05-22T02:24:39.747Z,15.02
2019-05-22T02:25:05.890Z,15.04
2019-05-22T02:25:58.253Z,14.86
2019-05-22T02:27:16.748Z,14.99
2019-05-22T02:28:09.037Z,14.89
2019-05-22T02:28:35.177Z,14.82
2019-05-22T02:29:27.499Z,14.85
2019-05-22T02:30:19.854Z,14.79
2019-05-22T02:30:46.041Z,14.82
2019-05-22T02:31:38.362Z,14.77
2019-05-22T02:32:56.834Z,14.7
2019-05-22T02:33:49.152Z,14.7
2019-05-22T02:34:15.292Z,14.73
2019-05-22T02:35:07.671Z,14.72
2019-05-22T02:36:26.182Z,14.78
2019-05-22T02:37:18.599Z,14.73
2019-05-22T02:37:44.747Z,14.77
2019-05-22T02:38:37.110Z,14.7
2019-05-22T02:39:29.462Z,14.81
2019-05-22T02:39:55.637Z,14.69
2019-05-22T02:40:47.965Z,14.7
2019-05-22T02:42:06.478Z,14.72
2019-05-22T02:42:58.782Z,14.81
2019-05-22T02:43:24.981Z,14.84
2019-05-22T02:44:17.347Z,14.72
2019-05-22T02:45:09.664Z,14.69
2019-05-22T02:45:35.826Z,14.81
2019-05-22T02:46:28.184Z,14.81
2019-05-22T02:47:49.586Z,14.84
2019-05-22T02:48:15.725Z,14.89
2019-05-22T02:49:08.072Z,14.85
2019-05-22T02:50:26.556Z,14.77
2019-05-22T02:51:18.876Z,14.81
2019-05-22T02:51:45.060Z,14.77
2019-05-22T02:52:37.396Z,14.69
2019-05-22T02:53:29.715Z,14.66
2019-05-22T02:53:55.856Z,14.69
2019-05-22T02:54:48.169Z,14.65
2019-05-22T02:56:06.653Z,14.66
2019-05-22T02:56:59.033Z,14.68
2019-05-22T02:57:25.201Z,14.68
2019-05-22T02:58:17.553Z,14.68
2019-05-22T02:59:09.872Z,14.69
2019-05-22T02:59:36.036Z,14.63
2019-05-22T03:00:28.362Z,14.59
2019-05-22T03:01:46.929Z,14.6
2019-05-22T03:02:39.193Z,14.65
2019-05-22T03:03:05.345Z,14.78
2019-05-22T03:03:57.684Z,14.77
2019-05-22T03:05:16.158Z,14.65
2019-05-22T03:06:08.460Z,14.62
2019-05-22T03:07:26.965Z,14.45
2019-05-22T03:08:19.286Z,14.53
2019-05-22T03:08:45.452Z,14.48
2019-05-22T03:09:37.780Z,14.65
2019-05-22T03:10:56.269Z,14.58
2019-05-22T03:11:48.566Z,14.53
2019-05-22T03:12:14.741Z,14.5
2019-05-22T03:13:07.112Z,14.55
2019-05-22T03:13:59.422Z,14.53
2019-05-22T03:14:25.581Z,14.55
2019-05-22T03:15:17.915Z,14.55
2019-05-22T03:16:36.384Z,14.54
2019-05-22T03:17:28.702Z,14.51
2019-05-22T03:17:54.839Z,14.53
2019-05-22T03:18:47.175Z,14.48
2019-05-22T03:19:14.702Z,14.48
2019-05-22T03:20:07.110Z,14.48
2019-05-22T03:20:59.385Z,14.54
2019-05-22T03:21:25.566Z,14.5
2019-05-22T03:22:17.922Z,14.47
2019-05-22T03:23:36.619Z,14.43
2019-05-22T03:24:28.935Z,14.47
2019-05-22T03:24:55.071Z,14.45
2019-05-22T03:25:47.391Z,14.54
2019-05-22T03:26:39.725Z,14.45
2019-05-22T03:27:05.897Z,14.51
2019-05-22T03:27:58.234Z,14.45
2019-05-22T03:29:16.761Z,14.44
2019-05-22T03:30:09.074Z,14.5
2019-05-22T03:30:35.268Z,14.47
2019-05-22T03:31:27.856Z,14.48
2019-05-22T03:32:47.332Z,14.41
2019-05-22T03:34:06.093Z,14.3
2019-05-22T03:34:58.437Z,14.29
2019-05-22T03:36:16.938Z,14.33
2019-05-22T03:37:09.230Z,14.29
2019-05-22T03:37:35.375Z,14.33
2019-05-22T03:38:27.744Z,14.35
2019-05-22T03:39:46.193Z,14.37
2019-05-22T03:40:38.527Z,14.5
2019-05-22T03:41:56.953Z,14.41
2019-05-22T03:42:49.306Z,14.41
2019-05-22T03:43:15.412Z,14.4
2019-05-22T03:44:07.732Z,14.3
2019-05-22T03:45:26.199Z,14.33
2019-05-22T03:46:18.484Z,14.43
2019-05-22T03:47:36.992Z,14.29
2019-05-22T03:48:29.314Z,14.32
2019-05-22T03:48:55.473Z,14.44
2019-05-22T03:49:49.767Z,14.32
2019-05-22T03:50:15.902Z,14.23
2019-05-22T03:51:08.246Z,14.33
2019-05-22T03:52:26.844Z,14.36
2019-05-22T03:53:19.125Z,14.4
2019-05-22T03:53:45.291Z,14.4
2019-05-22T03:54:37.653Z,14.3
2019-05-22T03:55:56.140Z,14.28
2019-05-22T03:56:48.498Z,14.33
2019-05-22T03:58:06.971Z,14.25
2019-05-22T03:58:59.262Z,14.23
2019-05-22T03:59:25.429Z,14.28
2019-05-22T04:00:17.750Z,14.23
2019-05-22T04:01:36.300Z,14.26
2019-05-22T04:02:28.618Z,14.23
2019-05-22T04:02:54.780Z,14.2
2019-05-22T04:03:47.102Z,14.26
2019-05-22T04:04:39.428Z,14.32
2019-05-22T04:05:05.582Z,14.28
2019-05-22T04:05:57.896Z,14.25
2019-05-22T04:07:16.404Z,14.28
2019-05-22T04:08:08.675Z,14.26
2019-05-22T04:08:34.875Z,14.25
2019-05-22T04:09:27.157Z,14.23
2019-05-22T04:10:19.573Z,14.2
2019-05-22T04:10:45.716Z,14.28
2019-05-22T04:11:38.018Z,14.23
2019-05-22T04:12:56.507Z,14.23
2019-05-22T04:13:48.855Z,14.2
2019-05-22T04:14:14.996Z,14.18
2019-05-22T04:15:07.318Z,14.25
2019-05-22T04:15:59.667Z,14.26
2019-05-22T04:16:25.804Z,14.22
2019-05-22T04:17:18.146Z,14.14
2019-05-22T04:18:36.683Z,14.23
2019-05-22T04:19:45.085Z,14.15
2019-05-22T04:19:57.138Z,14.12
2019-05-22T04:20:49.585Z,14.14
2019-05-22T04:21:15.677Z,14.23
2019-05-22T04:22:07.970Z,14.2
2019-05-22T04:23:26.435Z,14.28
2019-05-22T04:24:18.773Z,14.23
2019-05-22T04:24:44.936Z,14.2
2019-05-22T04:25:37.255Z,14.28
2019-05-22T04:26:29.588Z,14.14
2019-05-22T04:26:55.721Z,14.1
2019-05-22T04:27:48.068Z,14.14
2019-05-22T04:29:06.602Z,13.99
2019-05-22T04:29:58.969Z,14
2019-05-22T04:30:25.127Z,14.1
2019-05-22T04:31:18.434Z,13.97
2019-05-22T04:32:37.060Z,14.15
2019-05-22T04:33:29.438Z,14.18
2019-05-22T04:33:55.584Z,14.22
2019-05-22T04:34:47.877Z,14.25
2019-05-22T04:36:09.877Z,14.26
2019-05-22T04:36:59.641Z,14.2
2019-05-22T04:37:25.797Z,14.17
2019-05-22T04:38:18.083Z,14.26
2019-05-22T04:39:36.564Z,14.18
2019-05-22T04:40:28.879Z,14.22
2019-05-22T04:40:55.021Z,14.18
2019-05-22T04:41:47.411Z,14.14
2019-05-22T04:42:39.774Z,14.17
2019-05-22T04:43:05.970Z,14.1
2019-05-22T04:43:59.309Z,14.08
2019-05-22T04:44:25.535Z,13.99
2019-05-22T04:45:17.838Z,13.97
2019-05-22T04:46:36.323Z,14.08
2019-05-22T04:47:28.612Z,14.08
2019-05-22T04:47:54.761Z,14.15
2019-05-22T04:48:47.068Z,14.17
2019-05-22T04:49:39.374Z,14.28
2019-05-22T04:50:08.216Z,14.26
2019-05-22T04:51:26.721Z,14.11
2019-05-22T04:52:19.081Z,14.2
2019-05-22T04:52:45.254Z,14.26
2019-05-22T04:53:37.586Z,14.28
2019-05-22T04:54:29.902Z,14.25
2019-05-22T04:54:56.074Z,14.25
2019-05-22T04:55:48.433Z,14.23
2019-05-22T04:57:06.941Z,14.23
2019-05-22T04:57:59.298Z,14.12
2019-05-22T04:58:25.438Z,14.23
2019-05-22T04:59:17.752Z,14.2
2019-05-22T05:00:36.249Z,14.23
2019-05-22T05:01:28.595Z,14.15
2019-05-22T05:01:54.763Z,14.08
2019-05-22T05:02:47.105Z,14.1
2019-05-22T05:03:39.409Z,14.14
2019-05-22T05:04:05.552Z,14.12
2019-05-22T05:04:57.837Z,14.12
2019-05-22T05:06:16.359Z,14.12
2019-05-22T05:07:08.685Z,14.1
2019-05-22T05:07:34.818Z,14.18
2019-05-22T05:08:27.128Z,14.17
2019-05-22T05:09:19.465Z,14.25
2019-05-22T05:09:45.601Z,14.23
2019-05-22T05:10:37.906Z,14.25
2019-05-22T05:11:56.370Z,14.23
2019-05-22T05:12:48.677Z,14.22
2019-05-22T05:13:14.862Z,14.2
2019-05-22T05:14:07.180Z,14.14
2019-05-22T05:14:59.476Z,14.23
2019-05-22T05:15:25.644Z,14.18
2019-05-22T05:16:18.949Z,14.25
2019-05-22T05:16:45.086Z,14.23
2019-05-22T05:17:37.381Z,14.15
2019-05-22T05:18:29.691Z,14.14
2019-05-22T05:18:55.865Z,14.15
2019-05-22T05:19:48.211Z,14.12
2019-05-22T05:20:22.308Z,14.15
2019-05-22T05:21:08.630Z,14.23
2019-05-22T05:21:34.766Z,14.14
2019-05-22T05:22:27.058Z,14.22
2019-05-22T05:23:19.391Z,14.25
2019-05-22T05:23:45.617Z,14.18
2019-05-22T05:24:37.910Z,14.15
2019-05-22T05:25:56.394Z,14.32
2019-05-22T05:26:48.710Z,14.3
2019-05-22T05:27:14.925Z,14.32
2019-05-22T05:28:07.199Z,14.3
2019-05-22T05:28:59.532Z,14.22
2019-05-22T05:29:25.704Z,14.22
2019-05-22T05:30:18.018Z,14.23
2019-05-22T05:31:36.483Z,14.26
2019-05-22T05:32:28.780Z,14.18
2019-05-22T05:32:54.949Z,14.25
2019-05-22T05:33:47.298Z,14.29
2019-05-22T05:34:39.621Z,14.33
2019-05-22T05:35:06.509Z,14.23
2019-05-22T05:35:58.857Z,14.36
2019-05-22T05:36:25.001Z,14.37
2019-05-22T05:37:17.321Z,14.37
2019-05-22T05:38:09.614Z,14.41
2019-05-22T05:38:35.769Z,14.47
2019-05-22T05:39:28.136Z,14.36
2019-05-22T05:40:46.715Z,14.43
2019-05-22T05:41:39.035Z,14.54
2019-05-22T05:42:05.308Z,14.47
2019-05-22T05:42:57.785Z,14.43
2019-05-22T05:44:16.362Z,14.35
2019-05-22T05:45:08.753Z,14.48
2019-05-22T05:45:34.901Z,14.53
2019-05-22T05:46:27.240Z,14.45
2019-05-22T05:47:19.573Z,14.53
2019-05-22T05:47:45.714Z,14.53
2019-05-22T05:48:39.100Z,14.47
2019-05-22T05:49:06.511Z,14.5
2019-05-22T05:50:38.714Z,14.47
2019-05-22T05:50:56.123Z,14.43
2019-05-22T05:52:17.901Z,14.33
2019-05-22T05:53:36.678Z,14.45
2019-05-22T05:54:30.364Z,14.47
2019-05-22T05:54:56.501Z,14.43
2019-05-22T05:55:49.284Z,14.22
2019-05-22T05:56:15.664Z,14.3
2019-05-22T05:57:08.279Z,14.33
2019-05-22T05:58:27.380Z,14.28
2019-05-22T05:59:46.364Z,14.15
2019-05-22T06:00:38.674Z,14.22
2019-05-22T06:01:05.703Z,14.35
2019-05-22T06:02:28.967Z,14.37
2019-05-22T06:02:57.201Z,14.41
2019-05-22T06:03:49.552Z,14.51
2019-05-22T06:04:16.084Z,14.51
2019-05-22T06:05:09.404Z,14.33
2019-05-22T06:05:35.553Z,14.44
2019-05-22T06:06:28.202Z,14.44
2019-05-22T06:07:47.964Z,14.45
2019-05-22T06:09:06.500Z,14.43
2019-05-22T06:09:58.839Z,14.47
2019-05-22T06:10:24.979Z,14.48
2019-05-22T06:11:17.329Z,14.47
2019-05-22T06:12:09.659Z,14.48
2019-05-22T06:12:35.825Z,14.43
2019-05-22T06:13:28.205Z,14.48
2019-05-22T06:14:46.646Z,14.51
2019-05-22T06:15:46.851Z,14.47
2019-05-22T06:16:05.194Z,14.54
2019-05-22T06:16:57.545Z,14.62
2019-05-22T06:17:49.827Z,14.69
2019-05-22T06:18:16.010Z,14.66
2019-05-22T06:19:08.430Z,14.7
2019-05-22T06:20:26.893Z,14.68
2019-05-22T06:21:47.389Z,14.78
2019-05-22T06:22:39.783Z,14.77
2019-05-22T06:23:05.964Z,14.66
2019-05-22T06:23:58.260Z,14.78
2019-05-22T06:25:16.943Z,14.72
2019-05-22T06:26:09.312Z,14.72
2019-05-22T06:26:35.523Z,14.82
2019-05-22T06:27:27.818Z,14.7
2019-05-22T06:28:46.272Z,14.84
2019-05-22T06:29:38.899Z,15.06
2019-05-22T06:30:05.093Z,15.07
2019-05-22T06:30:57.365Z,15.17
2019-05-22T06:31:49.667Z,15.21
2019-05-22T06:32:15.834Z,15.15
2019-05-22T06:33:08.190Z,15.02
2019-05-22T06:34:26.746Z,15.02
2019-05-22T06:35:19.069Z,14.96
2019-05-22T06:35:45.228Z,14.97
2019-05-22T06:36:37.524Z,15
2019-05-22T06:37:29.811Z,14.99
2019-05-22T06:37:55.979Z,15.04
2019-05-22T06:38:48.280Z,15.02
2019-05-22T06:40:06.724Z,15.02
2019-05-22T06:40:59.045Z,14.97
2019-05-22T06:41:25.180Z,14.89
2019-05-22T06:42:17.524Z,14.82
2019-05-22T06:43:09.857Z,14.84
2019-05-22T06:43:36.000Z,14.72
2019-05-22T06:44:28.353Z,14.7
2019-05-22T06:45:46.942Z,14.85
2019-05-22T06:46:39.256Z,14.73
2019-05-22T06:47:05.435Z,14.73
2019-05-22T06:47:57.718Z,14.77
2019-05-22T06:49:16.180Z,14.68
2019-05-22T06:50:08.515Z,14.65
2019-05-22T06:50:34.707Z,14.66
2019-05-22T06:51:56.318Z,14.65
2019-05-22T06:52:48.640Z,14.73
2019-05-22T06:53:16.772Z,14.81
2019-05-22T06:54:09.267Z,14.91
2019-05-22T06:54:35.436Z,14.85
2019-05-22T06:55:27.785Z,14.88
2019-05-22T06:56:46.301Z,14.82
2019-05-22T06:57:38.707Z,14.81
2019-05-22T06:58:04.900Z,14.62
2019-05-22T06:58:57.228Z,14.77
2019-05-22T07:00:09.343Z,14.72
2019-05-22T07:00:17.706Z,14.72
2019-05-22T07:01:36.423Z,14.78
2019-05-22T07:02:28.817Z,14.59
2019-05-22T07:02:54.962Z,14.66
2019-05-22T07:03:47.297Z,14.69
2019-05-22T07:04:39.610Z,14.62
2019-05-22T07:05:05.781Z,14.54
2019-05-22T07:05:58.066Z,14.48
2019-05-22T07:07:16.552Z,14.44
2019-05-22T07:08:08.860Z,14.5
2019-05-22T07:08:35.068Z,14.51
2019-05-22T07:09:27.356Z,14.58
2019-05-22T07:10:19.658Z,14.55
2019-05-22T07:10:45.893Z,14.58
2019-05-22T07:11:38.145Z,14.55
2019-05-22T07:12:57.595Z,14.5
2019-05-22T07:14:16.221Z,14.41
2019-05-22T07:15:08.509Z,14.4
2019-05-22T07:16:26.973Z,14.53
2019-05-22T07:17:19.287Z,14.5
2019-05-22T07:17:45.508Z,14.43
2019-05-22T07:18:38.080Z,14.29
2019-05-22T07:19:56.620Z,14.32
2019-05-22T07:20:49.481Z,14.44
2019-05-22T07:21:15.639Z,14.45
2019-05-22T07:22:08.948Z,14.44
2019-05-22T07:22:35.195Z,14.48
2019-05-22T07:23:27.529Z,14.45
2019-05-22T07:24:19.894Z,14.45
2019-05-22T07:24:46.028Z,14.48
2019-05-22T07:25:38.346Z,14.43
2019-05-22T07:26:56.808Z,14.51
2019-05-22T07:27:49.212Z,14.54
2019-05-22T07:28:15.409Z,14.68
2019-05-22T07:29:07.816Z,14.72
2019-05-22T07:30:26.383Z,14.68
2019-05-22T07:31:18.730Z,14.66
2019-05-22T07:31:44.890Z,14.69
2019-05-22T07:32:38.267Z,14.66
2019-05-22T07:33:56.864Z,14.59
2019-05-22T07:34:49.244Z,14.7
2019-05-22T07:35:15.432Z,14.66
2019-05-22T07:36:36.878Z,14.81
2019-05-22T07:37:29.222Z,14.86
2019-05-22T07:37:55.359Z,14.84
2019-05-22T07:38:47.680Z,14.86
2019-05-22T07:40:06.115Z,15
2019-05-22T07:40:59.429Z,14.96
2019-05-22T07:41:25.595Z,14.89
2019-05-22T07:42:17.951Z,14.86
2019-05-22T07:43:41.128Z,14.79
2019-05-22T07:44:29.417Z,14.81
2019-05-22T07:44:55.621Z,14.85
2019-05-22T07:45:47.963Z,15
2019-05-22T07:47:06.542Z,15.04
2019-05-22T07:47:58.949Z,14.96
2019-05-22T07:48:25.753Z,14.97
2019-05-22T07:49:18.112Z,14.92
2019-05-22T07:50:36.695Z,14.84
2019-05-22T07:52:00.847Z,14.89
2019-05-22T07:52:48.673Z,14.94
2019-05-22T07:53:14.807Z,14.97
2019-05-22T07:54:07.180Z,15
2019-05-22T07:54:59.483Z,15.04
2019-05-22T07:55:25.624Z,15.06
2019-05-22T07:56:17.967Z,15.02
2019-05-22T07:57:36.464Z,15.07
2019-05-22T07:58:28.817Z,15
2019-05-22T07:58:58.786Z,15.14
2019-05-22T07:59:48.258Z,15.03
2019-05-22T08:01:06.782Z,15.11
2019-05-22T08:01:59.092Z,15.06
2019-05-22T08:02:25.284Z,15.07
2019-05-22T08:03:17.683Z,15.06
2019-05-22T08:04:36.165Z,15.04
2019-05-22T08:05:28.469Z,15.11
2019-05-22T08:06:46.997Z,15.21
2019-05-22T08:07:39.320Z,15.22
2019-05-22T08:08:05.519Z,15.25
2019-05-22T08:08:58.831Z,15.24
2019-05-22T08:09:24.969Z,15.27
2019-05-22T08:10:17.263Z,15.28
2019-05-22T08:11:09.632Z,15.14
2019-05-22T08:11:35.760Z,15.17
2019-05-22T08:12:28.062Z,15.07
2019-05-22T08:13:46.582Z,15.14
2019-05-22T08:14:38.943Z,15.29
2019-05-22T08:15:05.086Z,15.28
2019-05-22T08:15:57.469Z,15.43
2019-05-22T08:16:49.885Z,15.39
2019-05-22T08:17:16.025Z,15.43
2019-05-22T08:18:08.312Z,15.52
2019-05-22T08:19:26.843Z,15.68
2019-05-22T08:20:19.157Z,15.86
2019-05-22T08:20:45.293Z,15.79
2019-05-22T08:21:37.669Z,15.75
2019-05-22T08:22:07.560Z,15.84
2019-05-22T08:22:58.107Z,15.83
2019-05-22T08:24:16.588Z,15.97
2019-05-22T08:25:08.888Z,15.88
2019-05-22T08:25:35.052Z,15.84
2019-05-22T08:26:27.388Z,15.94
2019-05-22T08:27:46.853Z,15.83
2019-05-22T08:28:39.236Z,15.95
2019-05-22T08:29:05.421Z,15.98
2019-05-22T08:29:57.767Z,15.92
2019-05-22T08:31:16.337Z,16.1
2019-05-22T08:32:08.684Z,16.08
2019-05-22T08:32:34.819Z,16.08
2019-05-22T08:33:27.182Z,16.09
2019-05-22T08:34:19.490Z,16.12
2019-05-22T08:34:45.639Z,16.17
2019-05-22T08:35:38.001Z,16.24
2019-05-22T08:36:56.607Z,16.24
2019-05-22T08:37:48.915Z,16.21
2019-05-22T08:38:15.081Z,16.24
2019-05-22T08:39:07.372Z,16.21
2019-05-22T08:39:59.728Z,16.24
2019-05-22T08:40:25.888Z,16.26
2019-05-22T08:41:18.277Z,16.35
2019-05-22T08:42:36.748Z,16.42
2019-05-22T08:43:29.119Z,16.58
2019-05-22T08:44:15.034Z,16.56
2019-05-22T08:44:25.404Z,16.47
2019-05-22T08:45:17.728Z,16.47
2019-05-22T08:46:36.319Z,16.41
2019-05-22T08:47:28.692Z,16.36
2019-05-22T08:47:54.831Z,16.24
2019-05-22T08:48:48.802Z,16.26
2019-05-22T08:50:06.641Z,16.24
2019-05-22T08:50:58.967Z,16.02
2019-05-22T08:51:25.096Z,16
2019-05-22T08:52:23.268Z,16.05
2019-05-22T08:52:45.566Z,16.13
2019-05-22T08:53:46.490Z,16.1
2019-05-22T08:54:05.976Z,16.15
2019-05-22T08:54:58.396Z,16.15
2019-05-22T08:56:16.857Z,16.16
2019-05-22T08:57:09.365Z,16.24
2019-05-22T08:57:35.515Z,16.26
2019-05-22T08:58:27.850Z,16.28
2019-05-22T08:59:47.298Z,16.17
2019-05-22T09:00:39.644Z,16.1
2019-05-22T09:01:05.819Z,16.1
2019-05-22T09:01:58.144Z,16.04
2019-05-22T09:03:16.593Z,15.77
2019-05-22T09:04:08.917Z,15.64
2019-05-22T09:04:35.051Z,15.65
2019-05-22T09:05:28.377Z,15.73
2019-05-22T09:06:46.833Z,15.67
2019-05-22T09:07:39.235Z,15.79
2019-05-22T09:08:05.355Z,15.75
2019-05-22T09:08:57.641Z,15.84
2019-05-22T09:10:16.194Z,15.9
2019-05-22T09:11:08.543Z,15.86
2019-05-22T09:11:34.736Z,16.01
2019-05-22T09:12:27.032Z,15.88
2019-05-22T09:13:19.358Z,15.77
2019-05-22T09:13:45.550Z,15.8
2019-05-22T09:14:37.945Z,15.86
2019-05-22T09:16:00.987Z,16.01
2019-05-22T09:16:48.784Z,16.1
2019-05-22T09:17:14.957Z,16.09
2019-05-22T09:18:07.278Z,16.29
2019-05-22T09:18:59.592Z,16.26
2019-05-22T09:19:25.789Z,16.26
2019-05-22T09:20:18.122Z,16.26
2019-05-22T09:21:40.346Z,16.31
2019-05-22T09:22:58.525Z,16.28
2019-05-22T09:24:16.989Z,16.23
2019-05-22T09:25:09.391Z,16.32
2019-05-22T09:25:35.513Z,16.31
2019-05-22T09:26:27.846Z,16.26
2019-05-22T09:27:47.342Z,16.29
2019-05-22T09:28:39.648Z,16.31
2019-05-22T09:29:05.819Z,16.35
2019-05-22T09:29:58.163Z,16.33
2019-05-22T09:31:16.609Z,16.39
2019-05-22T09:32:08.965Z,16.49
2019-05-22T09:32:35.109Z,16.46
2019-05-22T09:33:27.437Z,16.47
2019-05-22T09:34:19.781Z,16.41
2019-05-22T09:34:45.948Z,16.46
2019-05-22T09:35:38.285Z,16.39
2019-05-22T09:36:56.711Z,16.46
2019-05-22T09:37:49.010Z,16.51
2019-05-22T09:38:15.182Z,16.49
2019-05-22T09:39:07.497Z,16.47
2019-05-22T09:39:59.801Z,16.58
2019-05-22T09:40:25.952Z,16.58
2019-05-22T09:41:18.289Z,16.49
2019-05-22T09:42:36.837Z,16.71
2019-05-22T09:43:29.213Z,16.6
2019-05-22T09:43:55.353Z,16.61
2019-05-22T09:44:47.642Z,16.39
2019-05-22T09:46:06.105Z,16.33
2019-05-22T09:46:58.486Z,16.5
2019-05-22T09:48:16.976Z,16.69
2019-05-22T09:49:09.345Z,16.75
2019-05-22T09:49:36.474Z,16.78
2019-05-22T09:50:28.827Z,16.74
2019-05-22T09:50:54.955Z,16.79
2019-05-22T09:51:47.287Z,16.76
2019-05-22T09:52:54.616Z,16.78
2019-05-22T09:53:07.718Z,16.86
2019-05-22T09:54:26.153Z,17.12
2019-05-22T09:55:18.442Z,17.26
2019-05-22T09:56:36.911Z,17.2
2019-05-22T09:57:29.304Z,17.16
2019-05-22T09:57:55.444Z,17.27
2019-05-22T09:58:47.774Z,17.49
2019-05-22T10:00:06.272Z,17.46
2019-05-22T10:00:58.571Z,17.48
2019-05-22T10:01:24.733Z,17.45
2019-05-22T10:02:17.130Z,17.6
2019-05-22T10:03:09.512Z,17.82
2019-05-22T10:03:35.678Z,17.89
2019-05-22T10:04:28.027Z,18.1
2019-05-22T10:05:46.630Z,18.23
2019-05-22T10:07:06.275Z,18.25
2019-05-22T10:08:01.520Z,18.38
2019-05-22T10:08:25.823Z,18.55
2019-05-22T10:09:18.156Z,18.71
2019-05-22T10:10:36.640Z,18.86
2019-05-22T10:11:29.054Z,19.04
2019-05-22T10:11:55.203Z,19.16
2019-05-22T10:12:47.553Z,19.18
2019-05-22T10:13:39.990Z,19.41
2019-05-22T10:14:06.100Z,19.58
2019-05-22T10:14:58.812Z,19.82
2019-05-22T10:15:25.327Z,19.95
2019-05-22T10:16:17.643Z,19.88
2019-05-22T10:17:36.177Z,20.1
2019-05-22T10:18:28.509Z,20.32
2019-05-22T10:19:47.014Z,20.44
2019-05-22T10:20:39.391Z,20.41
2019-05-22T10:21:05.571Z,20.62
2019-05-22T10:21:57.954Z,20.9
2019-05-22T10:23:16.628Z,21.29
2019-05-22T10:24:08.827Z,21.32
2019-05-22T10:24:35.003Z,21.46
2019-05-22T10:25:56.493Z,21.7
2019-05-22T10:26:48.828Z,21.92
2019-05-22T10:27:15.018Z,22.06
2019-05-22T10:28:07.339Z,22.17
2019-05-22T10:28:59.717Z,22.17
2019-05-22T10:29:25.826Z,22.02
2019-05-22T10:30:18.168Z,21.88
2019-05-22T10:31:38.093Z,21.76
2019-05-22T10:32:56.601Z,21.8
2019-05-22T10:33:51.847Z,21.6
2019-05-22T10:34:15.172Z,21.43
2019-05-22T10:35:08.319Z,21.12
2019-05-22T10:36:26.859Z,21.24
2019-05-22T10:37:19.156Z,21.11
2019-05-22T10:37:45.295Z,21.2
2019-05-22T10:38:37.631Z,21.09
2019-05-22T10:39:56.354Z,21.03
2019-05-22T10:40:48.677Z,21.06
2019-05-22T10:41:15.465Z,21.09
2019-05-22T10:42:07.789Z,21.25
2019-05-22T10:43:26.307Z,21.6
2019-05-22T10:44:18.627Z,21.83
2019-05-22T10:44:44.784Z,21.93
2019-05-22T10:45:37.120Z,22.04
2019-05-22T10:46:29.508Z,22
2019-05-22T10:46:55.685Z,22.06
2019-05-22T10:47:49.017Z,22.29
2019-05-22T10:48:15.155Z,22.36
2019-05-22T10:49:08.508Z,22.66
2019-05-22T10:50:26.988Z,23.12
2019-05-22T10:51:19.350Z,23.27
2019-05-22T10:51:45.506Z,23.43
2019-05-22T10:52:37.836Z,23.76